Time;durP1;ratioP1;P1;durP2;ratioP2;P2;SDS_P1;SDS_P2;PMS_P1;PMS_P2;Temp;Humidity;BMP_temperature;BMP_pressure;BME280_temperature;BME280_humidity;BME280_pressure;Samples;Min_cycle;Max_cycle;Signal;HPM_P1;HPM_P2
2021/12/05 00:22:18;;;;;;;2.80;1.63;;;;;;;;;;5013920;28;20759;-63
2021/12/05 00:24:48;;;;;;;3.27;1.50;;;;;;;;;;5013053;28;20781;-64
2021/12/05 00:27:18;;;;;;;2.30;1.60;;;;;;;;;;5014433;28;20506;-63
2021/12/05 00:30:01;;;;;;;3.90;1.40;;;;;;;;;;5014021;28;20450;-63
2021/12/05 00:38:28;;;;;;;6.20;1.37;;;;;;;;;;5013746;28;20424;-64
2021/12/05 01:09:11;;;;;;;3.70;1.57;;;;;;;;;;5013303;28;20932;-63
2021/12/05 01:12:00;;;;;;;1.57;1.13;;;;;;;;;;5012850;28;20444;-63
2021/12/05 01:14:33;;;;;;;3.30;1.17;;;;;;;;;;5013473;28;20379;-64
2021/12/05 01:17:00;;;;;;;3.30;1.57;;;;;;;;;;5013240;28;20396;-64
2021/12/05 01:19:28;;;;;;;9.67;1.50;;;;;;;;;;5013281;28;20407;-64
2021/12/05 01:21:56;;;;;;;2.40;1.40;;;;;;;;;;5013084;28;20436;-64
2021/12/05 01:24:41;;;;;;;2.67;1.57;;;;;;;;;;5013056;28;20535;-64
2021/12/05 01:32:17;;;;;;;2.80;1.60;;;;;;;;;;5012803;28;20431;-64
2021/12/05 01:40:31;;;;;;;2.53;1.50;;;;;;;;;;5012736;28;20400;-64
2021/12/05 01:58:48;;;;;;;2.67;1.17;;;;;;;;;;5016499;28;20482;-63
2021/12/05 02:31:37;;;;;;;2.07;1.30;;;;;;;;;;4996455;28;20467;-64
2021/12/05 02:41:47;;;;;;;2.00;1.40;;;;;;;;;;4995962;28;20459;-64
2021/12/05 02:46:44;;;;;;;3.43;1.53;;;;;;;;;;4995858;28;20409;-63
2021/12/05 02:49:12;;;;;;;1.70;1.40;;;;;;;;;;4996087;28;20531;-64
2021/12/05 02:51:40;;;;;;;2.03;1.23;;;;;;;;;;4995491;28;20486;-64
2021/12/05 02:54:13;;;;;;;1.67;1.40;;;;;;;;;;4995855;28;20808;-64
2021/12/05 02:56:46;;;;;;;2.53;1.43;;;;;;;;;;4995710;28;20385;-64
2021/12/05 02:59:44;;;;;;;1.70;1.20;;;;;;;;;;4995670;28;20393;-64
2021/12/05 03:02:08;;;;;;;2.50;1.47;;;;;;;;;;4995416;28;20491;-64
2021/12/05 03:04:36;;;;;;;1.80;1.37;;;;;;;;;;4995145;28;20397;-64
2021/12/05 03:07:06;;;;;;;2.33;1.47;;;;;;;;;;4995545;28;20409;-64
2021/12/05 03:09:32;;;;;;;2.97;1.37;;;;;;;;;;4995615;28;20460;-63
2021/12/05 03:11:59;;;;;;;3.03;2.00;;;;;;;;;;4995629;28;20429;-64
2021/12/05 03:14:25;;;;;;;1.60;1.13;;;;;;;;;;4995129;28;20400;-64
2021/12/05 03:16:51;;;;;;;2.87;1.37;;;;;;;;;;4995240;28;20405;-63
2021/12/05 03:19:18;;;;;;;1.87;1.37;;;;;;;;;;4995405;28;20436;-63
2021/12/05 03:21:45;;;;;;;2.20;1.40;;;;;;;;;;4995298;28;20436;-63
2021/12/05 03:24:12;;;;;;;1.87;1.40;;;;;;;;;;4995046;28;20455;-63
2021/12/05 03:26:40;;;;;;;1.93;1.10;;;;;;;;;;4995054;28;20405;-63
2021/12/05 03:29:08;;;;;;;2.43;1.60;;;;;;;;;;4994885;28;20459;-62
2021/12/05 03:31:35;;;;;;;1.53;1.10;;;;;;;;;;4993708;28;20437;-63
2021/12/05 03:34:02;;;;;;;6.57;1.60;;;;;;;;;;4995165;28;20766;-63
2021/12/05 03:36:29;;;;;;;3.30;1.23;;;;;;;;;;4994801;28;20443;-63
2021/12/05 03:38:55;;;;;;;1.67;1.30;;;;;;;;;;4993512;28;20420;-63
2021/12/05 03:41:21;;;;;;;1.80;1.20;;;;;;;;;;4994880;28;20940;-63
2021/12/05 03:43:50;;;;;;;4.60;1.37;;;;;;;;;;4994896;28;20456;-62
2021/12/05 03:46:17;;;;;;;3.23;1.20;;;;;;;;;;4994681;28;20406;-63
2021/12/05 03:48:46;;;;;;;3.10;1.10;;;;;;;;;;4994572;28;20455;-63
2021/12/05 03:51:13;;;;;;;2.90;1.97;;;;;;;;;;5003184;28;20462;-63
2021/12/05 03:53:39;;;;;;;1.67;1.40;;;;;;;;;;5014005;28;20763;-63
2021/12/05 03:56:08;;;;;;;2.70;1.03;;;;;;;;;;5014117;28;20410;-63
2021/12/05 03:58:35;;;;;;;2.47;1.10;;;;;;;;;;5014394;28;20400;-63
2021/12/05 04:01:01;;;;;;;2.60;1.50;;;;;;;;;;5014039;28;20407;-63
2021/12/05 04:03:28;;;;;;;2.67;1.40;;;;;;;;;;5014245;28;20453;-63
2021/12/05 04:05:54;;;;;;;5.17;1.33;;;;;;;;;;5014008;28;20410;-63
2021/12/05 04:08:22;;;;;;;4.00;1.60;;;;;;;;;;5013726;28;20487;-63
2021/12/05 04:10:51;;;;;;;3.03;1.30;;;;;;;;;;5013964;28;20411;-63
2021/12/05 04:13:17;;;;;;;3.57;1.43;;;;;;;;;;5013949;28;20395;-63
2021/12/05 04:15:43;;;;;;;1.90;1.10;;;;;;;;;;5013138;28;20474;-63
2021/12/05 04:18:09;;;;;;;8.93;2.03;;;;;;;;;;5013666;28;20400;-64
2021/12/05 04:20:36;;;;;;;5.17;1.60;;;;;;;;;;5013863;28;20479;-63
2021/12/05 04:23:03;;;;;;;5.63;1.30;;;;;;;;;;5012331;28;20473;-63
2021/12/05 04:25:29;;;;;;;1.70;1.03;;;;;;;;;;5013512;28;20490;-64
2021/12/05 04:27:56;;;;;;;3.93;1.60;;;;;;;;;;5013782;28;20407;-63
2021/12/05 04:30:24;;;;;;;2.27;1.10;;;;;;;;;;5013500;28;20408;-62
2021/12/05 04:32:50;;;;;;;3.30;1.27;;;;;;;;;;5013395;28;20424;-63
2021/12/05 04:35:17;;;;;;;3.63;1.23;;;;;;;;;;5013783;28;20408;-63
2021/12/05 04:37:44;;;;;;;3.93;1.47;;;;;;;;;;5011167;28;20427;-63
2021/12/05 04:40:11;;;;;;;2.20;1.27;;;;;;;;;;5013426;28;20499;-63
2021/12/05 04:42:37;;;;;;;2.00;1.60;;;;;;;;;;5013236;28;20946;-63
2021/12/05 04:45:05;;;;;;;4.00;1.17;;;;;;;;;;5013308;28;20414;-63
2021/12/05 04:47:31;;;;;;;2.03;1.50;;;;;;;;;;5013435;28;20404;-63
2021/12/05 04:49:57;;;;;;;2.97;1.50;;;;;;;;;;5013312;28;21019;-63
2021/12/05 04:52:23;;;;;;;2.93;1.40;;;;;;;;;;5013237;28;20985;-63
2021/12/05 04:54:49;;;;;;;3.50;1.80;;;;;;;;;;5013542;28;20403;-63
2021/12/05 04:57:15;;;;;;;3.13;1.40;;;;;;;;;;5013432;28;20401;-63
2021/12/05 04:59:47;;;;;;;1.60;1.23;;;;;;;;;;5013831;28;20419;-63
2021/12/05 05:02:14;;;;;;;4.30;1.57;;;;;;;;;;5013341;28;20442;-63
2021/12/05 05:04:46;;;;;;;3.00;1.67;;;;;;;;;;5013768;28;20895;-63
2021/12/05 05:07:20;;;;;;;5.10;1.30;;;;;;;;;;5013554;28;20388;-63
2021/12/05 05:09:47;;;;;;;3.10;1.77;;;;;;;;;;5013335;28;20999;-63
2021/12/05 05:12:13;;;;;;;4.03;1.90;;;;;;;;;;5013332;28;20424;-63
2021/12/05 05:14:40;;;;;;;3.60;1.40;;;;;;;;;;5012464;28;20499;-63
2021/12/05 05:17:06;;;;;;;6.90;1.40;;;;;;;;;;5013394;28;20414;-63
2021/12/05 05:19:47;;;;;;;2.43;1.50;;;;;;;;;;5013242;28;20414;-63
2021/12/05 05:22:42;;;;;;;3.70;1.57;;;;;;;;;;5013034;28;20424;-63
2021/12/05 05:26:14;;;;;;;3.30;1.60;;;;;;;;;;5013530;28;20396;-63
2021/12/05 05:51:44;;;;;;;2.50;1.60;;;;;;;;;;5059517;28;20430;-62
2021/12/05 05:54:10;;;;;;;5.43;2.00;;;;;;;;;;5058844;28;20415;-62
2021/12/05 05:56:37;;;;;;;6.57;1.80;;;;;;;;;;5058670;28;20476;-62
2021/12/05 05:59:15;;;;;;;4.90;1.63;;;;;;;;;;5059140;28;20402;-63
2021/12/05 06:02:02;;;;;;;3.60;1.43;;;;;;;;;;5058994;28;20422;-63
2021/12/05 06:04:27;;;;;;;3.30;1.73;;;;;;;;;;5059034;28;20413;-62
2021/12/05 06:06:53;;;;;;;5.50;1.70;;;;;;;;;;5058486;28;20402;-61
2021/12/05 06:09:20;;;;;;;7.30;2.20;;;;;;;;;;5058541;28;20449;-62
2021/12/05 06:11:46;;;;;;;4.27;1.70;;;;;;;;;;5058548;28;20432;-62
2021/12/05 06:14:12;;;;;;;4.47;1.83;;;;;;;;;;5059190;28;20407;-62
2021/12/05 06:16:38;;;;;;;3.53;2.60;;;;;;;;;;5058739;28;20394;-61
2021/12/05 06:19:04;;;;;;;2.30;1.73;;;;;;;;;;5058981;28;20878;-62
2021/12/05 06:21:30;;;;;;;2.70;1.43;;;;;;;;;;5058483;28;20408;-62
2021/12/05 06:23:56;;;;;;;4.13;1.70;;;;;;;;;;5058336;28;20408;-62
2021/12/05 06:26:23;;;;;;;7.70;3.40;;;;;;;;;;5058684;28;20402;-63
2021/12/05 06:29:03;;;;;;;2.30;1.50;;;;;;;;;;5058312;28;20442;-61
2021/12/05 06:37:10;;;;;;;3.90;1.57;;;;;;;;;;5057891;28;20385;-61
2021/12/05 06:47:27;;;;;;;3.40;1.90;;;;;;;;;;5057930;28;20919;-62
2021/12/05 06:49:54;;;;;;;10.93;2.27;;;;;;;;;;5057604;28;20448;-62
2021/12/05 06:52:21;;;;;;;2.63;1.70;;;;;;;;;;5057766;28;21005;-63
2021/12/05 06:54:47;;;;;;;3.60;1.63;;;;;;;;;;5058047;28;20398;-63
2021/12/05 06:57:13;;;;;;;4.20;2.17;;;;;;;;;;5057698;28;20394;-62
2021/12/05 06:59:41;;;;;;;2.57;1.60;;;;;;;;;;5057467;28;20405;-62
2021/12/05 07:02:08;;;;;;;4.50;1.67;;;;;;;;;;5057438;28;20803;-61
2021/12/05 07:07:02;;;;;;;2.80;1.67;;;;;;;;;;5057861;28;20491;-61
2021/12/05 07:09:28;;;;;;;4.87;1.47;;;;;;;;;;5056939;28;20441;-63
2021/12/05 07:14:49;;;;;;;4.47;1.90;;;;;;;;;;5057550;28;20505;-62
2021/12/05 07:20:12;;;;;;;5.03;2.10;;;;;;;;;;5057251;28;20389;-62
2021/12/05 07:25:11;;;;;;;3.70;1.80;;;;;;;;;;5056278;28;20499;-62
2021/12/05 07:43:49;;;;;;;2.70;1.20;;;;;;;;;;5056523;28;20469;-62
2021/12/05 07:46:15;;;;;;;2.60;1.50;;;;;;;;;;5057117;28;20394;-61
2021/12/05 07:48:44;;;;;;;3.93;2.03;;;;;;;;;;5053508;28;20450;-63
2021/12/05 07:51:24;;;;;;;8.33;2.60;;;;;;;;;;5053990;28;20728;-63
2021/12/05 07:56:43;;;;;;;4.93;1.43;;;;;;;;;;5053772;28;20600;-63
2021/12/05 08:15:44;;;;;;;3.27;1.53;;;;;;;;;;5053068;28;20416;-62
2021/12/05 08:18:10;;;;;;;3.43;1.50;;;;;;;;;;5053804;28;20465;-62
2021/12/05 08:20:37;;;;;;;3.30;1.73;;;;;;;;;;5053205;28;20410;-63
2021/12/05 08:23:04;;;;;;;5.80;1.40;;;;;;;;;;5053624;28;20505;-62
2021/12/05 08:25:31;;;;;;;3.33;1.70;;;;;;;;;;5052714;28;20414;-62
2021/12/05 08:28:13;;;;;;;4.80;1.93;;;;;;;;;;5053094;28;20493;-64
2021/12/05 08:30:39;;;;;;;3.20;1.83;;;;;;;;;;5053380;28;20476;-64
2021/12/05 08:33:31;;;;;;;2.47;1.30;;;;;;;;;;5053283;28;20442;-65
2021/12/05 09:08:34;;;;;;;2.93;1.70;;;;;;;;;;5053069;28;20460;-66
2021/12/05 10:03:33;;;;;;;6.70;1.70;;;;;;;;;;5034573;28;20442;-66
2021/12/05 10:11:03;;;;;;;3.40;1.50;;;;;;;;;;5033590;28;20794;-65
2021/12/05 10:26:41;;;;;;;3.50;1.90;;;;;;;;;;5037300;28;20370;-65
2021/12/05 10:37:54;;;;;;;2.67;1.77;;;;;;;;;;5037607;28;20391;-65
2021/12/05 10:40:23;;;;;;;2.17;1.17;;;;;;;;;;5037266;28;20782;-65
2021/12/05 10:42:51;;;;;;;1.70;1.33;;;;;;;;;;5036966;28;20827;-67
2021/12/05 10:45:23;;;;;;;3.23;1.40;;;;;;;;;;5037227;28;20414;-65
2021/12/05 10:47:51;;;;;;;2.27;1.50;;;;;;;;;;5037840;28;20403;-66
2021/12/05 10:50:36;;;;;;;3.20;1.67;;;;;;;;;;5037699;28;20522;-65
2021/12/05 10:53:20;;;;;;;4.73;1.90;;;;;;;;;;5037858;28;20419;-65
2021/12/05 10:55:46;;;;;;;3.33;1.93;;;;;;;;;;5037194;28;20481;-66
2021/12/05 10:58:12;;;;;;;4.80;1.70;;;;;;;;;;5037094;28;20398;-65
2021/12/05 11:00:39;;;;;;;4.57;1.80;;;;;;;;;;5037040;28;20916;-65
2021/12/05 11:03:18;;;;;;;5.40;2.40;;;;;;;;;;5036459;28;20933;-65
2021/12/05 11:05:45;;;;;;;3.77;1.70;;;;;;;;;;5036763;28;20879;-66
2021/12/05 11:08:29;;;;;;;3.10;2.07;;;;;;;;;;5036513;28;20407;-66
2021/12/05 11:11:10;;;;;;;4.20;1.63;;;;;;;;;;5036826;28;20429;-66
2021/12/05 11:13:37;;;;;;;3.57;1.30;;;;;;;;;;5036581;28;20402;-66
2021/12/05 11:16:04;;;;;;;3.03;1.60;;;;;;;;;;5036393;28;20402;-66
2021/12/05 11:18:43;;;;;;;5.37;1.30;;;;;;;;;;5036280;28;20399;-66
2021/12/05 11:21:25;;;;;;;3.40;1.47;;;;;;;;;;5035215;28;20775;-66
2021/12/05 11:24:26;;;;;;;5.00;1.87;;;;;;;;;;5036439;28;20410;-66
2021/12/05 11:27:07;;;;;;;4.27;1.97;;;;;;;;;;5014265;28;20455;-65
2021/12/05 11:29:54;;;;;;;2.80;1.93;;;;;;;;;;5034346;28;20470;-66
2021/12/05 11:32:31;;;;;;;8.90;1.80;;;;;;;;;;5036799;28;20423;-66
2021/12/05 11:34:57;;;;;;;4.43;2.20;;;;;;;;;;5036146;28;20395;-66
2021/12/05 11:37:23;;;;;;;6.87;1.80;;;;;;;;;;5036271;28;20419;-65
2021/12/05 11:39:50;;;;;;;3.23;1.47;;;;;;;;;;5036055;28;20410;-65
2021/12/05 11:42:18;;;;;;;4.33;1.60;;;;;;;;;;5036427;28;20459;-65
2021/12/05 11:44:46;;;;;;;2.67;1.53;;;;;;;;;;5034547;28;20450;-65
2021/12/05 11:47:19;;;;;;;3.40;1.60;;;;;;;;;;5036119;28;20407;-66
2021/12/05 11:49:45;;;;;;;5.43;2.90;;;;;;;;;;5036427;28;20822;-65
2021/12/05 11:52:12;;;;;;;2.83;1.60;;;;;;;;;;5037155;28;20507;-65
2021/12/05 11:54:40;;;;;;;2.97;1.70;;;;;;;;;;5035791;28;20885;-65
2021/12/05 11:57:06;;;;;;;6.77;1.60;;;;;;;;;;5035553;28;20411;-66
2021/12/05 11:59:41;;;;;;;3.03;1.77;;;;;;;;;;5035405;28;20400;-66
2021/12/05 12:02:07;;;;;;;4.83;1.37;;;;;;;;;;5035187;28;20422;-66
2021/12/05 12:04:39;;;;;;;3.47;1.60;;;;;;;;;;5035414;28;20438;-68
2021/12/05 12:07:17;;;;;;;2.63;1.20;;;;;;;;;;5035592;28;20411;-66
2021/12/05 12:09:44;;;;;;;7.60;2.10;;;;;;;;;;5035433;28;20446;-65
2021/12/05 12:12:10;;;;;;;2.87;1.70;;;;;;;;;;5035524;28;20471;-65
2021/12/05 12:14:36;;;;;;;3.03;1.30;;;;;;;;;;5035514;28;20418;-66
2021/12/05 12:17:06;;;;;;;4.40;1.80;;;;;;;;;;5035216;28;20482;-66
2021/12/05 12:19:32;;;;;;;4.27;1.53;;;;;;;;;;5035029;28;20410;-66
2021/12/05 12:22:03;;;;;;;2.37;1.60;;;;;;;;;;5035289;28;20426;-66
2021/12/05 12:24:29;;;;;;;3.33;1.20;;;;;;;;;;5034893;28;20387;-66
2021/12/05 12:26:55;;;;;;;10.10;2.40;;;;;;;;;;5034875;28;20410;-65
2021/12/05 12:29:21;;;;;;;5.40;1.80;;;;;;;;;;5035266;28;20457;-66
2021/12/05 12:31:50;;;;;;;2.77;1.70;;;;;;;;;;5034774;28;20434;-66
2021/12/05 12:34:18;;;;;;;4.13;1.80;;;;;;;;;;5035560;28;20407;-66
2021/12/05 12:36:46;;;;;;;6.17;2.20;;;;;;;;;;5033865;28;20498;-66
2021/12/05 12:39:32;;;;;;;6.10;1.90;;;;;;;;;;5033984;28;20737;-66
2021/12/05 12:42:12;;;;;;;5.87;1.57;;;;;;;;;;5034511;28;20446;-66
2021/12/05 12:44:55;;;;;;;2.30;1.80;;;;;;;;;;5034759;28;20407;-66
2021/12/05 12:47:29;;;;;;;3.03;1.60;;;;;;;;;;5034822;28;20414;-66
2021/12/05 12:49:55;;;;;;;2.67;1.77;;;;;;;;;;5035311;28;20442;-66
2021/12/05 12:52:21;;;;;;;3.33;1.47;;;;;;;;;;5035287;28;20418;-66
2021/12/05 12:54:52;;;;;;;3.90;1.57;;;;;;;;;;5034673;28;20406;-66
2021/12/05 12:57:20;;;;;;;2.63;1.90;;;;;;;;;;5034531;28;20383;-66
2021/12/05 12:59:57;;;;;;;5.83;5.33;;;;;;;;;;5034889;28;20490;-66
2021/12/05 13:10:52;;;;;;;3.97;2.07;;;;;;;;;;5034173;28;20407;-65
2021/12/05 13:13:20;;;;;;;6.13;2.13;;;;;;;;;;5034609;28;20445;-65
2021/12/05 13:15:47;;;;;;;6.50;2.00;;;;;;;;;;5034236;28;20401;-65
2021/12/05 13:18:13;;;;;;;2.53;1.47;;;;;;;;;;5034178;28;20390;-65
2021/12/05 13:20:42;;;;;;;3.20;2.03;;;;;;;;;;5034815;28;20391;-65
2021/12/05 13:23:16;;;;;;;6.60;2.27;;;;;;;;;;5034747;28;20936;-66
2021/12/05 13:25:57;;;;;;;4.13;1.80;;;;;;;;;;5033334;28;20387;-65
2021/12/05 13:28:31;;;;;;;3.87;1.93;;;;;;;;;;5034757;28;20391;-65
2021/12/05 13:30:58;;;;;;;8.97;2.33;;;;;;;;;;5035324;28;20437;-65
2021/12/05 13:33:25;;;;;;;6.20;2.00;;;;;;;;;;5034611;28;20425;-66
2021/12/05 13:35:58;;;;;;;3.93;1.50;;;;;;;;;;5034764;28;20854;-65
2021/12/05 13:38:38;;;;;;;4.50;2.40;;;;;;;;;;5035466;28;20387;-66
2021/12/05 13:41:14;;;;;;;5.20;1.80;;;;;;;;;;5034489;28;20462;-66
2021/12/05 13:43:41;;;;;;;3.20;1.60;;;;;;;;;;5034588;28;20406;-66
2021/12/05 13:46:25;;;;;;;3.43;1.73;;;;;;;;;;5033998;28;20421;-65
2021/12/05 13:48:52;;;;;;;2.40;1.70;;;;;;;;;;5034846;28;20454;-66
2021/12/05 13:51:22;;;;;;;3.00;1.60;;;;;;;;;;5037303;28;20834;-66
2021/12/05 13:53:51;;;;;;;5.90;1.50;;;;;;;;;;5038256;28;20474;-66
2021/12/05 13:56:23;;;;;;;4.07;2.10;;;;;;;;;;5038178;28;20481;-66
2021/12/05 13:58:51;;;;;;;3.60;1.90;;;;;;;;;;5038310;28;20387;-66
2021/12/05 14:01:20;;;;;;;3.90;1.70;;;;;;;;;;5038178;28;20395;-66
2021/12/05 14:04:10;;;;;;;5.10;2.10;;;;;;;;;;5038240;28;20881;-66
2021/12/05 14:06:54;;;;;;;4.83;2.33;;;;;;;;;;5038251;28;20927;-66
2021/12/05 14:09:40;;;;;;;6.93;2.40;;;;;;;;;;5037858;28;20449;-66
2021/12/05 14:12:08;;;;;;;3.43;1.87;;;;;;;;;;5038058;28;20508;-68
2021/12/05 14:14:54;;;;;;;3.40;2.10;;;;;;;;;;5037914;28;20437;-66
2021/12/05 14:17:25;;;;;;;3.87;2.07;;;;;;;;;;5036297;28;20959;-66
2021/12/05 14:20:00;;;;;;;5.73;1.97;;;;;;;;;;5037747;28;20771;-67
2021/12/05 14:22:31;;;;;;;4.17;1.70;;;;;;;;;;5037279;28;20932;-66
2021/12/05 14:24:59;;;;;;;6.43;2.53;;;;;;;;;;5037609;28;20410;-66
2021/12/05 14:27:27;;;;;;;2.50;2.13;;;;;;;;;;5037300;28;20419;-68
2021/12/05 14:29:53;;;;;;;7.10;2.27;;;;;;;;;;5037251;28;20457;-65
2021/12/05 14:32:22;;;;;;;3.57;1.80;;;;;;;;;;5037546;28;20426;-67
2021/12/05 14:34:49;;;;;;;3.73;1.90;;;;;;;;;;5037766;28;20486;-65
2021/12/05 14:37:16;;;;;;;5.90;2.30;;;;;;;;;;5037256;28;20413;-66
2021/12/05 14:39:44;;;;;;;2.20;1.60;;;;;;;;;;5036927;28;20588;-66
2021/12/05 14:42:16;;;;;;;4.70;2.03;;;;;;;;;;5036717;28;20458;-66
2021/12/05 14:44:42;;;;;;;3.67;2.60;;;;;;;;;;5036401;28;20480;-66
2021/12/05 14:47:10;;;;;;;2.80;2.40;;;;;;;;;;5036590;28;20407;-66
2021/12/05 14:49:38;;;;;;;7.10;2.83;;;;;;;;;;5036414;28;20454;-66
2021/12/05 14:52:06;;;;;;;7.77;2.50;;;;;;;;;;5034704;28;20815;-66
2021/12/05 14:54:35;;;;;;;3.57;2.70;;;;;;;;;;5036158;28;20406;-66
2021/12/05 14:57:05;;;;;;;4.13;2.60;;;;;;;;;;5036164;28;20410;-66
2021/12/05 14:59:31;;;;;;;5.60;3.10;;;;;;;;;;5035418;28;20415;-66
2021/12/05 15:01:58;;;;;;;4.00;2.93;;;;;;;;;;5035624;28;20423;-66
2021/12/05 15:04:30;;;;;;;9.03;2.90;;;;;;;;;;5036748;28;20414;-67
2021/12/05 15:06:56;;;;;;;7.37;2.70;;;;;;;;;;5036240;28;20931;-65
2021/12/05 15:09:25;;;;;;;2.40;2.10;;;;;;;;;;5036771;28;20466;-65
2021/12/05 15:11:53;;;;;;;12.40;2.60;;;;;;;;;;5036016;28;20427;-65
2021/12/05 15:14:19;;;;;;;5.10;2.57;;;;;;;;;;5038359;28;20433;-67
2021/12/05 15:16:56;;;;;;;4.33;2.97;;;;;;;;;;5055769;28;20456;-65
2021/12/05 15:19:23;;;;;;;5.30;3.40;;;;;;;;;;5052392;28;20441;-66
2021/12/05 15:21:49;;;;;;;5.50;2.60;;;;;;;;;;5057308;28;20465;-64
2021/12/05 15:24:16;;;;;;;3.47;2.67;;;;;;;;;;5056751;28;20454;-65
2021/12/05 15:26:42;;;;;;;3.33;2.73;;;;;;;;;;5056099;28;20789;-69
2021/12/05 15:29:08;;;;;;;4.05;2.85;;;;;;;;;;5054467;28;20442;-68
2021/12/05 15:31:35;;;;;;;4.87;2.60;;;;;;;;;;5049573;28;20197;-67
2021/12/05 15:34:02;;;;;;;5.17;2.63;;;;;;;;;;5054556;28;20409;-67
2021/12/05 15:36:34;;;;;;;7.53;2.37;;;;;;;;;;5053901;28;20505;-67
2021/12/05 15:39:10;;;;;;;4.47;3.07;;;;;;;;;;5040202;28;20414;-67
2021/12/05 15:41:36;;;;;;;4.90;2.70;;;;;;;;;;5053332;28;20556;-66
2021/12/05 15:44:02;;;;;;;6.23;2.87;;;;;;;;;;5053358;28;20823;-65
2021/12/05 15:46:29;;;;;;;11.13;4.17;;;;;;;;;;5052379;28;20756;-67
2021/12/05 15:48:57;;;;;;;5.13;3.33;;;;;;;;;;5051447;28;20446;-65
2021/12/05 15:51:24;;;;;;;5.43;2.90;;;;;;;;;;5054317;28;20398;-66
2021/12/05 15:53:50;;;;;;;7.70;3.80;;;;;;;;;;5054526;28;20402;-66
2021/12/05 15:56:18;;;;;;;16.00;6.00;;;;;;;;;;5054074;28;20409;-66
2021/12/05 15:58:47;;;;;;;11.40;3.00;;;;;;;;;;5054334;28;20483;-67
2021/12/05 16:01:14;;;;;;;11.30;4.10;;;;;;;;;;5053860;28;20409;-68
2021/12/05 16:03:42;;;;;;;6.60;2.83;;;;;;;;;;5054199;28;20414;-66
2021/12/05 16:06:08;;;;;;;4.83;2.87;;;;;;;;;;5052470;28;20405;-66
2021/12/05 16:08:35;;;;;;;3.23;2.27;;;;;;;;;;5054037;28;20769;-66
2021/12/05 16:11:01;;;;;;;1.90;1.60;;;;;;;;;;5053637;28;20711;-66
2021/12/05 16:13:32;;;;;;;5.30;2.27;;;;;;;;;;5052871;28;20429;-67
2021/12/05 16:16:07;;;;;;;4.00;2.97;;;;;;;;;;5053772;28;20738;-67
2021/12/05 16:18:34;;;;;;;3.27;2.27;;;;;;;;;;5053873;28;20485;-67
2021/12/05 16:21:05;;;;;;;4.47;2.03;;;;;;;;;;5053912;28;20451;-67
2021/12/05 16:23:38;;;;;;;2.27;1.50;;;;;;;;;;5053679;28;20422;-67
2021/12/05 16:26:09;;;;;;;3.40;1.60;;;;;;;;;;5053780;28;20904;-66
2021/12/05 16:28:46;;;;;;;5.03;2.90;;;;;;;;;;5053613;28;20483;-66
2021/12/05 16:31:12;;;;;;;3.53;2.47;;;;;;;;;;5053449;28;20408;-67
2021/12/05 16:33:38;;;;;;;3.83;2.20;;;;;;;;;;5053803;28;20398;-66
2021/12/05 16:36:05;;;;;;;3.70;2.43;;;;;;;;;;5053720;28;20406;-67
2021/12/05 16:38:31;;;;;;;3.23;2.30;;;;;;;;;;5053675;28;20398;-67
2021/12/05 16:41:15;;;;;;;2.93;2.30;;;;;;;;;;5053477;28;20406;-67
2021/12/05 16:43:53;;;;;;;3.90;2.87;;;;;;;;;;5053388;28;20434;-67
2021/12/05 16:46:24;;;;;;;4.07;2.70;;;;;;;;;;5053691;28;20742;-66
2021/12/05 16:48:51;;;;;;;3.77;2.50;;;;;;;;;;5053213;28;20971;-67
2021/12/05 16:51:43;;;;;;;5.87;2.93;;;;;;;;;;5053851;28;20409;-67
2021/12/05 16:54:16;;;;;;;6.83;3.60;;;;;;;;;;5049987;28;20422;-67
2021/12/05 16:56:46;;;;;;;8.47;3.30;;;;;;;;;;5053760;28;20421;-69
2021/12/05 16:59:39;;;;;;;4.80;3.43;;;;;;;;;;5053727;28;20410;-66
2021/12/05 17:02:08;;;;;;;5.23;3.47;;;;;;;;;;5049425;28;20445;-67
2021/12/05 17:04:48;;;;;;;6.47;3.60;;;;;;;;;;5053277;28;20406;-67
2021/12/05 17:07:17;;;;;;;5.43;3.50;;;;;;;;;;5053205;28;20382;-66
2021/12/05 17:09:43;;;;;;;4.40;3.80;;;;;;;;;;5053185;28;20453;-67
2021/12/05 17:12:25;;;;;;;4.47;3.33;;;;;;;;;;5053071;28;20429;-66
2021/12/05 17:14:51;;;;;;;6.80;4.37;;;;;;;;;;5053828;28;20402;-69
2021/12/05 17:17:33;;;;;;;10.10;4.57;;;;;;;;;;5053081;28;20397;-69
2021/12/05 17:20:17;;;;;;;4.67;3.70;;;;;;;;;;5053248;28;20409;-70
2021/12/05 17:22:50;;;;;;;8.00;4.20;;;;;;;;;;5054036;28;20425;-70
2021/12/05 17:25:46;;;;;;;10.87;5.37;;;;;;;;;;5059845;28;20400;-69
2021/12/05 17:28:14;;;;;;;6.50;4.50;;;;;;;;;;5042824;28;20417;-69
2021/12/05 17:30:50;;;;;;;7.60;4.83;;;;;;;;;;5059949;28;20448;-69
2021/12/05 17:33:38;;;;;;;6.00;3.90;;;;;;;;;;5059488;28;20421;-68
2021/12/05 17:36:16;;;;;;;6.17;4.33;;;;;;;;;;5059911;28;20796;-68
2021/12/05 17:38:42;;;;;;;5.63;3.23;;;;;;;;;;5060018;28;20401;-69
2021/12/05 17:41:08;;;;;;;6.40;4.10;;;;;;;;;;5059574;28;20412;-69
2021/12/05 17:43:34;;;;;;;4.70;3.50;;;;;;;;;;5074702;23;20511;-64
2021/12/05 17:46:00;;;;;;;5.77;3.77;;;;;;;;;;5059529;28;20398;-64
2021/12/05 17:48:28;;;;;;;7.80;3.83;;;;;;;;;;5059316;28;20386;-64
2021/12/05 17:50:55;;;;;;;5.13;4.43;;;;;;;;;;5058026;28;20437;-64
2021/12/05 17:53:27;;;;;;;5.70;3.63;;;;;;;;;;5059702;28;20449;-63
2021/12/05 17:55:59;;;;;;;6.10;3.47;;;;;;;;;;5059406;28;20418;-64
2021/12/05 18:03:56;;;;;;;6.23;4.90;;;;;;;;;;5059541;28;20416;-63
2021/12/05 18:06:22;;;;;;;12.73;4.67;;;;;;;;;;5059268;28;20813;-64
2021/12/05 18:08:49;;;;;;;7.97;4.27;;;;;;;;;;5059105;28;20447;-64
2021/12/05 18:11:21;;;;;;;6.20;4.53;;;;;;;;;;5059157;28;20489;-63
2021/12/05 18:13:51;;;;;;;4.97;4.27;;;;;;;;;;5059133;28;20414;-64
2021/12/05 18:16:23;;;;;;;7.60;5.17;;;;;;;;;;5059119;28;20393;-64
2021/12/05 18:18:50;;;;;;;8.00;5.93;;;;;;;;;;5058913;28;20390;-64
2021/12/05 18:21:18;;;;;;;5.40;4.17;;;;;;;;;;5058909;28;20508;-64
2021/12/05 18:23:44;;;;;;;5.17;3.97;;;;;;;;;;5058810;28;20516;-63
2021/12/05 18:26:11;;;;;;;5.57;4.27;;;;;;;;;;5059253;28;20412;-64
2021/12/05 18:28:38;;;;;;;7.63;5.30;;;;;;;;;;5057597;28;20409;-63
2021/12/05 18:31:08;;;;;;;11.57;6.17;;;;;;;;;;5058957;28;20445;-63
2021/12/05 18:33:35;;;;;;;8.27;5.63;;;;;;;;;;5058995;28;20413;-63
2021/12/05 18:36:02;;;;;;;5.23;4.50;;;;;;;;;;5055115;28;20753;-63
2021/12/05 18:38:28;;;;;;;7.83;4.73;;;;;;;;;;5055800;28;20452;-63
2021/12/05 18:40:58;;;;;;;10.90;7.10;;;;;;;;;;5055723;28;20444;-63
2021/12/05 18:43:27;;;;;;;7.87;5.47;;;;;;;;;;5055512;28;20966;-61
2021/12/05 18:45:55;;;;;;;7.50;5.23;;;;;;;;;;5055936;28;20410;-63
2021/12/05 18:48:21;;;;;;;6.83;4.80;;;;;;;;;;5055821;28;20398;-62
2021/12/05 18:50:48;;;;;;;6.20;4.23;;;;;;;;;;5055548;28;20398;-63
2021/12/05 18:53:16;;;;;;;6.57;3.60;;;;;;;;;;5055485;28;20442;-63
2021/12/05 18:55:43;;;;;;;5.50;4.27;;;;;;;;;;5055504;28;20800;-65
2021/12/05 18:58:10;;;;;;;5.70;4.00;;;;;;;;;;5055440;28;20802;-63
2021/12/05 19:04:22;;;;;;;7.03;4.63;;;;;;;;;;5055426;28;20455;-63
2021/12/05 19:06:21;;;;;;;7.30;4.77;;;;;;;;;;5055474;28;20915;-63
2021/12/05 19:11:47;;;;;;;5.83;4.83;;;;;;;;;;5055386;28;20788;-63
2021/12/05 19:14:18;;;;;;;7.80;5.10;;;;;;;;;;5055549;28;20382;-63
2021/12/05 19:16:49;;;;;;;7.60;5.50;;;;;;;;;;5054990;28;20758;-63
2021/12/05 19:19:15;;;;;;;9.13;5.80;;;;;;;;;;5055081;28;20885;-63
2021/12/05 19:21:41;;;;;;;10.43;6.43;;;;;;;;;;5054803;28;20414;-63
2021/12/05 19:24:08;;;;;;;11.23;6.90;;;;;;;;;;5054897;28;20468;-64
2021/12/05 19:26:34;;;;;;;8.10;6.07;;;;;;;;;;5055022;28;20437;-63
2021/12/05 19:29:00;;;;;;;10.47;6.90;;;;;;;;;;5054833;28;20438;-64
2021/12/05 19:31:28;;;;;;;9.37;6.20;;;;;;;;;;5054748;28;20491;-63
2021/12/05 19:33:54;;;;;;;8.47;5.37;;;;;;;;;;5055145;28;20418;-63
2021/12/05 19:36:21;;;;;;;9.77;5.20;;;;;;;;;;5054939;28;20497;-63
2021/12/05 19:38:48;;;;;;;6.33;5.73;;;;;;;;;;5054659;28;20409;-63
2021/12/05 19:41:14;;;;;;;7.47;5.30;;;;;;;;;;5054574;28;20406;-63
2021/12/05 19:43:41;;;;;;;9.60;5.40;;;;;;;;;;5054564;28;20468;-64
2021/12/05 19:46:10;;;;;;;8.67;5.20;;;;;;;;;;5054562;28;20420;-63
2021/12/05 19:48:36;;;;;;;11.83;5.57;;;;;;;;;;5054671;28;20422;-64
2021/12/05 19:51:07;;;;;;;9.03;6.00;;;;;;;;;;5054894;28;20411;-64
2021/12/05 19:53:34;;;;;;;8.80;5.30;;;;;;;;;;5054860;28;20783;-62
2021/12/05 19:56:00;;;;;;;8.40;5.47;;;;;;;;;;5054378;28;20464;-64
2021/12/05 19:58:26;;;;;;;10.33;6.40;;;;;;;;;;5054624;28;20771;-63
2021/12/05 20:00:52;;;;;;;6.50;5.40;;;;;;;;;;5054514;28;20879;-63
2021/12/05 20:03:18;;;;;;;9.13;5.77;;;;;;;;;;5053959;28;20418;-64
2021/12/05 20:05:44;;;;;;;9.63;6.90;;;;;;;;;;5054093;28;20505;-64
2021/12/05 20:08:11;;;;;;;12.80;5.50;;;;;;;;;;5054022;28;20405;-63
2021/12/05 20:10:38;;;;;;;6.37;5.03;;;;;;;;;;5054200;28;20861;-63
2021/12/05 20:13:05;;;;;;;6.20;5.23;;;;;;;;;;5053998;28;20430;-64
2021/12/05 20:15:31;;;;;;;11.13;5.83;;;;;;;;;;5053898;28;20401;-64
2021/12/05 20:17:59;;;;;;;8.63;5.67;;;;;;;;;;5053971;28;20406;-63
2021/12/05 20:20:25;;;;;;;8.57;5.83;;;;;;;;;;5053862;28;20884;-63
2021/12/05 20:22:51;;;;;;;7.00;5.30;;;;;;;;;;5053595;28;20418;-64
2021/12/05 20:25:18;;;;;;;6.97;4.60;;;;;;;;;;5053843;28;20411;-62
2021/12/05 20:27:44;;;;;;;9.03;5.40;;;;;;;;;;5054120;28;20429;-62
2021/12/05 20:30:13;;;;;;;9.40;5.37;;;;;;;;;;5053920;28;20922;-63
2021/12/05 20:32:39;;;;;;;7.33;5.60;;;;;;;;;;5053811;28;20480;-63
2021/12/05 20:35:07;;;;;;;7.23;5.73;;;;;;;;;;5054109;28;20811;-62
2021/12/05 20:37:34;;;;;;;9.07;5.60;;;;;;;;;;5054024;28;20421;-64